Tiempo atmosférico en la estación meteorológica de Tacoronte, Santa Cruz de Tenerife (310 m.)



Fecha
DESCASC
Temp. máxima en grados centígrados (hora)
DESCASC
Temp. mínima en grados centígrados (hora)
DESCASC
Temp. media en grados centígrados
DESCASC
Racha de viento máxima en m/sg (hora)
DESCASC
Velocidad máxima media en intervalos de 10 minutos(hora)
DESCASC
Precipitaciones diarias en mm
DESCASC
Precipitaciones de 00:00 a 06:00 en mm
DESCASC
Precipitaciones de 06:00 a 12:00 en mm
DESCASC
Precipitaciones de 12:00 a 18:00 en mm
DESCASC
Precipitaciones de 18:00 a 24:00 en mm
DESCASC
16-06-2019 22.2 (17:10) 13.4 (05:10) 17.8 6.11 (15:30) 3.89 (04:40) 0 0 0 0 0
15-06-2019 21.9 (14:30) 13.3 (05:10) 17.6 6.94 (06:00) 5.56 (06:00) 0 0 0 0 0
14-06-2019 23.2 (16:00) 14.2 (06:40) 18.7 10.56 (17:10) 6.39 (16:10) 0.2 0.2 0 0 0
13-06-2019 21.2 (15:20) 15.7 (00:00) 18.5 6.39 (19:00) 3.61 (15:50) 0 0 0 0 0
12-06-2019 21 (16:40) 16.1 (00:00) 18.6 6.39 (10:20) 3.61 (14:40) 8.2 2.8 5.4 0 0
11-06-2019 21 (19:00) 15.7 (00:00) 18.3 5.83 (15:20) 3.06 (16:40) 1.6 0 0.4 1 0.2
10-06-2019 21.8 (17:40) 16.6 (00:00) 19.2 8.33 (16:00) 4.17 (17:00) 0 0 0 0 0
09-06-2019 21.7 (13:40) 15.1 (00:00) 18.4 10.83 (16:40) 5.83 (16:00) 0 0 0 0 0
08-06-2019 21.1 (13:50) 16.8 (00:00) 18.9 8.61 (08:30) 5.83 (08:30) 0.6 0.6 0 0 0
07-06-2019 22.1 (19:10) 15.7 (00:00) 18.9 6.11 (16:20) 3.61 (17:10) 0 0 0 0 0
06-06-2019 21.1 (14:50) 15.7 (00:00) 18.4 8.61 (14:50) 4.72 (14:50) 0 0 0 0 0
05-06-2019 22 (12:40) 16.8 (00:00) 19.4 8.33 (14:50) 5.56 (12:20) 0 0 0 0 0
04-06-2019 23.9 (12:30) 17.5 (00:00) 20.7 8.06 (14:20) 4.72 (14:10) 0 0 0 0 0
03-06-2019 27.9 (19:00) 16.5 (00:00) 22.2 7.5 (03:30) 4.17 (03:40) 0 0 0 0 0
02-06-2019 23 (17:30) 15.8 (00:00) 19.4 5.28 (13:50) 2.78 (09:40) 0 0 0 0 0
01-06-2019 22.4 (15:50) 16 (00:00) 19.2 5.28 (16:40) 3.06 (16:30) 0 0 0 0 0
31-05-2019 21.8 (17:00) 16.4 (00:00) 19.1 5.28 (17:10) 3.06 (14:30) 0 0 0 0 0
30-05-2019 21.2 (16:30) 15.7 (00:00) 18.5 6.39 (16:00) 3.33 (14:10) 0 0 0 0 0
29-05-2019 20.8 (16:50) 16.5 (00:00) 18.6 6.39 (16:40) 3.89 (15:40) 0 0 0 0 0
28-05-2019 21.9 (17:50) 16.1 (00:00) 19 7.5 (13:50) 4.17 (12:40) 0 0 0 0 0
27-05-2019 22.4 (17:30) 14.7 (00:00) 18.5 7.22 (18:00) 4.72 (18:30) 0 0 0 0 0
26-05-2019 22.4 (17:10) 16 (00:00) 19.2 7.22 (17:20) 4.17 (17:40) 0 0 0 0 0
25-05-2019 21.7 (17:40) 15.8 (00:00) 18.8 8.33 (16:10) 5 (16:00) 2.4 0.2 2 0.2 0
24-05-2019 22.3 (15:20) 15.6 (00:00) 18.9 11.39 (13:00) 7.22 (13:20) 0 0 0 0 0
23-05-2019 20.6 (13:40) 15.9 (00:00) 18.3 9.44 (13:00) 4.72 (11:10) 1 0.6 0.4 0 0
22-05-2019 21.4 (16:30) 15.9 (00:00) 18.6 7.5 (14:30) 4.17 (23:30) 0.2 0 0.2 0 0
21-05-2019 21.6 (17:00) 15 (00:30) 18.3 6.94 (12:40) 4.72 (12:40) 0.2 0 0.2 0 0

Gráficas

Temp. máximas Temp. mínimas Temp. medias Precipitaciones Rachas de viento máximas Velocidades máximas media en intervalos de 10 minutos

Datos horarios

Fecha y hora oficial Temperatura (ºC) Velocidad del viento (km/h) Dirección del viento Racha (km/h) Dirección de racha Precipitación (mm) Presión (hPa) Tendencia (hPa) Humedad (%)
2019-06-19 23:00:00 19.2 6 Norte 12 Noroeste 0 -- -- 87
2019-06-19 22:00:00 19.6 7 Noroeste 12 Noroeste 0 -- -- 87
2019-06-19 21:00:00 20.2 7 Noroeste 15 Noroeste 0 -- -- 83
2019-06-19 20:00:00 22 8 Noroeste 16 Norte 0 -- -- 75
2019-06-19 19:00:00 22 10 Noroeste 20 Noroeste 0 -- -- 75
2019-06-19 18:00:00 23.8 10 Noroeste 18 Oeste 0 -- -- 68
2019-06-19 17:00:00 23.3 10 Oeste 18 Oeste 0 -- -- 66
2019-06-19 16:00:00 22.9 11 Noroeste 18 Noroeste 0 -- -- 70
2019-06-19 15:00:00 22.9 11 Noroeste 17 Noroeste 0 -- -- 72
2019-06-19 14:00:00 23.2 9 Noroeste -- -- -- -- -- 71
2019-06-19 13:00:00 -- -- -- -- -- -- -- -- --
2019-06-19 12:00:00 22.1 7 Noroeste 11 Oeste 0 -- -- 69
2019-06-19 11:00:00 21.3 5 Oeste 9 Oeste 0 -- -- 76
2019-06-19 10:00:00 20.9 5 Oeste 8 Noroeste 0 -- -- 79
2019-06-19 09:00:00 19.1 5 Noroeste 7 Noroeste 0 -- -- 88
2019-06-19 08:00:00 18.6 3 Sudoeste 12 Sudoeste 0 -- -- 88
2019-06-19 07:00:00 18.6 3 Oeste 10 Oeste 0 -- -- 85
2019-06-19 06:00:00 18.7 3 Oeste 13 Oeste 0 -- -- 88
2019-06-19 05:00:00 18.7 5 Oeste 11 Noroeste 0 -- -- 88
2019-06-19 04:00:00 18.6 2 Este 14 Noroeste 0 -- -- 89
2019-06-19 03:00:00 19.1 4 Oeste 8 Oeste 0 -- -- 93
2019-06-19 02:00:00 18.9 0 Calma 5 Noroeste 0 -- -- 93
2019-06-19 01:00:00 19.4 3 Noroeste 4 Noroeste 0 -- -- 91
2019-06-19 00:00:00 19.6 2 Oeste 5 Noroeste 0 -- -- 89
2019-06-18 23:00:00 19.7 2 Noroeste 5 Sudoeste 0 -- -- 87
2019-06-18 22:00:00 19.8 3 Oeste 8 Oeste 0 -- -- 86
2019-06-18 21:00:00 20.4 3 Noroeste 9 Noroeste 0 -- -- 83
2019-06-18 20:00:00 21.1 6 Oeste 11 Noroeste 0 -- -- 75
2019-06-18 19:00:00 22.1 8 Noroeste 15 Noroeste 0 -- -- 73
2019-06-18 18:00:00 22.7 8 Noroeste 17 Norte 0 -- -- 74
2019-06-18 17:00:00 21.8 10 Noroeste 20 Noroeste 0 -- -- 83
2019-06-18 16:00:00 22.6 10 Noroeste 16 Noroeste 0 -- -- 77
2019-06-18 15:00:00 23.1 10 Noroeste 16 Noroeste 0 -- -- 72
2019-06-18 14:00:00 23.1 10 Noroeste 15 Oeste 0 -- -- 69
2019-06-18 13:00:00 24 9 Oeste 14 Oeste 0 -- -- 63
2019-06-18 12:00:00 23.3 8 Noroeste 12 Noroeste 0 -- -- 66
2019-06-18 11:00:00 22.2 6 Noroeste 10 Noroeste 0 -- -- 69
2019-06-18 10:00:00 22.6 3 Oeste 7 Noroeste 0 -- -- 67
2019-06-18 09:00:00 21.5 3 Norte 8 Sudeste 0 -- -- 71
2019-06-18 08:00:00 19.3 7 Sudeste 12 Sudeste 0 -- -- 79
2019-06-18 07:00:00 17.8 8 Sudeste 10 Sudeste 0 -- -- 86
2019-06-18 06:00:00 17.7 6 Sur 12 Sudeste 0 -- -- 84
2019-06-18 05:00:00 17.3 9 Sudeste 10 Sudeste 0 -- -- 78
2019-06-18 04:00:00 18.2 3 Sur 9 Sur 0 -- -- 76
2019-06-18 03:00:00 18.7 5 Sur 8 Sur 0 -- -- 74
2019-06-18 02:00:00 18.9 5 Sur 12 Sudeste 0 -- -- 75
2019-06-18 01:00:00 17.9 9 Sudeste 12 Sudeste 0 -- -- 87
2019-06-18 00:00:00 18.9 4 Oeste 11 Sudoeste 0 -- -- 90
2019-06-17 23:00:00 19.1 6 Sudoeste 13 Sudoeste 0 -- -- 89
2019-06-17 22:00:00 19.3 9 Sudoeste 15 Sudoeste 0 -- -- 92
2019-06-17 21:00:00 20.6 9 Oeste 17 Oeste 0 -- -- 88
2019-06-17 20:00:00 20.5 7 Oeste 14 Oeste 0 -- -- 85
2019-06-17 19:00:00 22.6 9 Oeste 16 Oeste 0 -- -- 77
2019-06-17 18:00:00 22.6 9 Oeste 18 Oeste 0 -- -- 74
2019-06-17 17:00:00 22.6 11 Oeste 18 Oeste 0 -- -- 75
2019-06-17 16:00:00 23.1 12 Oeste 19 Oeste 0 -- -- 66
2019-06-17 15:00:00 22.1 12 Oeste 20 Oeste 0 -- -- 69
2019-06-17 14:00:00 22 11 Oeste 18 Oeste 0 -- -- 64
2019-06-17 13:00:00 21.6 9 Oeste 14 Oeste 0 -- -- 55
2019-06-17 12:00:00 21.8 6 Oeste 11 Oeste 0 -- -- 53
2019-06-17 11:00:00 21.2 6 Oeste 9 Oeste 0 -- -- 55
2019-06-17 10:00:00 20.7 4 Oeste 7 Oeste 0 -- -- 57
2019-06-17 09:00:00 20.3 4 Oeste 8 Oeste 0 -- -- 62
2019-06-17 08:00:00 17.1 6 Sur 13 Sudeste 0 -- -- 64
2019-06-17 07:00:00 14.9 9 Sudeste 11 Sudeste 0 -- -- 71
2019-06-17 06:00:00 15.4 6 Sur 11 Sur 0 -- -- 72
2019-06-17 05:00:00 15.3 6 Sur 8 Sur 0 -- -- 73
2019-06-17 04:00:00 15.8 6 Sur 13 Sur 0 -- -- 70
2019-06-17 03:00:00 16 10 Sudeste 14 Sudeste 0 -- -- 69
2019-06-17 02:00:00 16.2 7 Sudeste 10 Sudeste 0 -- -- 69
2019-06-17 01:00:00 16.4 5 Sur 8 Sur 0 -- -- 75
2019-06-17 00:00:00 16.5 5 Sur 8 Sur 0 -- -- 72
2019-06-16 23:00:00 17 4 Sur 7 Sudeste 0 -- -- 75
2019-06-16 22:00:00 17.7 4 Sudeste 10 Nordeste 0 -- -- 74
2019-06-16 21:00:00 19.4 5 Nordeste 13 Norte 0 -- -- 68
2019-06-16 20:00:00 21 7 Noroeste 15 Noroeste 0 -- -- 60
2019-06-16 19:00:00 20.9 8 Noroeste 17 Noroeste 0 -- -- 58
2019-06-16 18:00:00 21.8 8 Noroeste 21 Noroeste 0 -- -- 56
2019-06-16 17:00:00 21.8 10 Noroeste 21 Noroeste 0 -- -- 55
2019-06-16 16:00:00 21.8 11 Norte 22 Norte 0 -- -- 58
2019-06-16 15:00:00 21.8 12 Noroeste 21 Norte 0 -- -- 59
2019-06-16 14:00:00 21.7 12 Norte 20 Norte 0 -- -- 55
2019-06-16 13:00:00 21.2 10 Noroeste 17 Noroeste 0 -- -- 57
2019-06-16 12:00:00 20.5 8 Noroeste 13 Noroeste 0 -- -- 55
2019-06-16 11:00:00 20 6 Noroeste 11 Noroeste 0 -- -- 64
2019-06-16 10:00:00 19.9 5 Oeste 8 Noroeste 0 -- -- 60
2019-06-16 09:00:00 19.4 2 Oeste 10 Sur 0 -- -- 65
2019-06-16 08:00:00 15.5 8 Sur 13 Sur 0 -- -- 74
2019-06-16 07:00:00 13.5 10 Sudeste 13 Sudeste 0 -- -- 80
2019-06-16 06:00:00 13.6 10 Sur 17 Sudeste 0 -- -- 79
2019-06-16 05:00:00 13.6 13 Sudeste 18 Sudeste 0 -- -- 80
2019-06-16 04:00:00 13.7 13 Sudeste 17 Sudeste 0 -- -- 79
2019-06-16 03:00:00 14.1 11 Sudeste 16 Sudeste 0 -- -- 76
2019-06-16 02:00:00 14.3 12 Sudeste 15 Sudeste 0 -- -- 76
2019-06-16 01:00:00 14.5 12 Sudeste 17 Sudeste 0 -- -- 73
2019-06-16 00:00:00 14.9 12 Sudeste 18 Sudeste 0 -- -- 74
2019-06-15 23:00:00 15.4 12 Sudeste 16 Sudeste 0 -- -- 74
2019-06-15 22:00:00 16.6 7 Sudeste 10 Sudeste 0 -- -- 70
2019-06-15 21:00:00 19 3 Noroeste 10 Oeste 0 -- -- 62
2019-06-15 20:00:00 20 6 Oeste 14 Noroeste 0 -- -- 59
2019-06-15 19:00:00 19.8 7 Oeste 11 Oeste 0 -- -- 61
2019-06-15 18:00:00 19.8 4 Oeste 13 Noroeste 0 -- -- 60
2019-06-15 17:00:00 20.1 8 Noroeste 14 Noroeste 0 -- -- 61
2019-06-15 16:00:00 20.3 7 Norte 19 Norte 0 -- -- 60
2019-06-15 15:00:00 21.1 11 Norte 19 Norte 0 -- -- 59
2019-06-15 14:00:00 20.4 9 Noroeste 16 Norte 0 -- -- 62
2019-06-15 13:00:00 20 10 Norte 20 Nordeste 0 -- -- 66
2019-06-15 12:00:00 20.1 14 Nordeste 24 Nordeste 0 -- -- 62
2019-06-15 11:00:00 19.7 15 Nordeste 24 Nordeste 0 -- -- 63
2019-06-15 10:00:00 17.7 15 Este 24 Este 0 -- -- 64
2019-06-15 09:00:00 17.4 8 Nordeste 13 Nordeste 0 -- -- 73
2019-06-15 08:00:00 16.4 7 Este 24 Sudeste 0 -- -- 80
2019-06-15 07:00:00 15.8 15 Este 24 Este 0 -- -- 78
2019-06-15 06:00:00 14.2 20 Sudeste 25 Este 0 -- -- 77
2019-06-15 05:00:00 13.5 15 Sudeste 21 Sudeste 0 -- -- 76
2019-06-15 04:00:00 13.9 12 Sudeste 18 Sudeste 0 -- -- 73
2019-06-15 03:00:00 13.9 14 Sudeste 21 Sudeste 0 -- -- 71
2019-06-15 02:00:00 13.9 13 Sudeste 20 Sudeste 0 -- -- 72
2019-06-15 01:00:00 14.5 12 Sudeste 15 Sudeste 0 -- -- 71
2019-06-15 00:00:00 15 10 Sudeste 14 Sudeste 0 -- -- 70
2019-06-14 23:00:00 15.9 6 Sudeste 12 Sudeste 0 -- -- 70
2019-06-14 22:00:00 16.7 5 Sudeste 19 Nordeste 0 -- -- 75
2019-06-14 21:00:00 18 13 Nordeste 21 Nordeste 0 -- -- 71
2019-06-14 20:00:00 20.1 15 Nordeste 24 Nordeste 0 -- -- 65
2019-06-14 19:00:00 21 15 Nordeste 30 Norte 0 -- -- 55
2019-06-14 18:00:00 22.4 15 Nordeste 38 Nordeste 0 -- -- 47
2019-06-14 17:00:00 22 21 Nordeste 37 Nordeste 0 -- -- 48
2019-06-14 16:00:00 23.2 19 Nordeste 33 Nordeste 0 -- -- 46
2019-06-14 15:00:00 22.3 19 Nordeste 33 Nordeste 0 -- -- 48
2019-06-14 14:00:00 22.6 16 Nordeste 32 Nordeste 0 -- -- 44
2019-06-14 13:00:00 21.9 19 Nordeste 32 Nordeste 0 -- -- 49
2019-06-14 12:00:00 21.8 11 Nordeste 23 Norte 0 -- -- 45
2019-06-14 11:00:00 20.8 11 Nordeste 23 Nordeste 0 -- -- 49
2019-06-14 10:00:00 19.8 13 Nordeste 21 Norte 0 -- -- 57
2019-06-14 09:00:00 17.1 13 Este 18 Este 0 -- -- 79
2019-06-14 08:00:00 15.6 13 Sudeste 19 Sudeste 0 -- -- 82
2019-06-14 07:00:00 14.3 10 Sudeste 15 Sudeste 0 -- -- 83
2019-06-14 06:00:00 14.6 9 Sudeste 12 Sudeste 0 -- -- 87
2019-06-14 05:00:00 15.4 9 Este 11 Este 0 -- -- 86
2019-06-14 04:00:00 16.2 5 Nordeste 10 Nordeste 0 -- -- 86
2019-06-14 03:00:00 16.1 6 Sudeste 9 Sur 0.2 -- -- 87
2019-06-14 02:00:00 16.3 4 Sudeste 11 Sudeste 0 -- -- 82
2019-06-14 01:00:00 15.5 8 Sudeste 10 Sudeste 0 -- -- 80
2019-06-14 00:00:00 16.3 3 Sudeste 4 Sudeste 0 -- -- 83
2019-06-13 23:00:00 16.7 0 Calma 8 Nordeste 0 -- -- 81
2019-06-13 22:00:00 17.3 5 Nordeste 12 Nordeste 0 -- -- 76
2019-06-13 21:00:00 18.1 8 Nordeste 16 Noroeste 0 -- -- 70
2019-06-13 20:00:00 19.9 8 Norte 18 Noroeste 0 -- -- 69
2019-06-13 19:00:00 20 11 Noroeste 23 Oeste 0 -- -- 71
2019-06-13 18:00:00 20.4 11 Noroeste 22 Norte 0 -- -- 66
2019-06-13 17:00:00 20.7 12 Noroeste 20 Noroeste 0 -- -- 66
2019-06-13 16:00:00 21 11 Noroeste 20 Noroeste 0 -- -- 64
2019-06-13 15:00:00 20.4 10 Noroeste 17 Noroeste 0 -- -- 65
2019-06-13 14:00:00 20.4 10 Oeste 19 Noroeste 0 -- -- 65
2019-06-13 13:00:00 19.9 11 Noroeste 17 Noroeste 0 -- -- 65
2019-06-13 12:00:00 19.1 11 Norte 19 Noroeste 0 -- -- 66
2019-06-13 11:00:00 19.6 8 Noroeste 13 Noroeste 0 -- -- 68
2019-06-13 10:00:00 18 8 Noroeste 14 Norte 0 -- -- 71
2019-06-13 09:00:00 17 10 Norte 18 Norte 0 -- -- 81
2019-06-13 08:00:00 16.8 6 Noroeste 15 Noroeste 0 -- -- 78
2019-06-13 07:00:00 16.5 3 Sudoeste 13 Oeste 0 -- -- 80
2019-06-13 06:00:00 16.5 6 Noroeste 12 Noroeste 0 -- -- 80
2019-06-13 05:00:00 16.2 4 Oeste 19 Norte 0 -- -- 79
2019-06-13 04:00:00 16.8 6 Noroeste 12 Noroeste 0 -- -- 76
2019-06-13 03:00:00 16.4 4 Oeste 11 Noroeste 0 -- -- 79
2019-06-13 02:00:00 16.8 7 Noroeste 15 Noroeste 0 -- -- 78
2019-06-13 01:00:00 16.8 8 Noroeste 16 Noroeste 0 -- -- 84
2019-06-13 00:00:00 16.9 6 Noroeste 11 Noroeste 0 -- -- 81
2019-06-12 23:00:00 16.8 6 Norte 11 Norte 0 -- -- 82
2019-06-12 22:00:00 17.2 5 Norte 14 Norte 0 -- -- 79
2019-06-12 21:00:00 17.4 10 Norte 20 Norte 0 -- -- 78
2019-06-12 20:00:00 18.1 11 Norte 21 Norte 0 -- -- 83
2019-06-12 19:00:00 18.7 10 Norte 18 Noroeste 0 -- -- 80
2019-06-12 18:00:00 19.8 11 Norte 21 Noroeste 0 -- -- 77
2019-06-12 17:00:00 20.2 10 Norte 17 Noroeste 0 -- -- 67
2019-06-12 16:00:00 20.9 13 Noroeste 19 Noroeste 0 -- -- 71
2019-06-12 15:00:00 19.5 12 Noroeste 19 Noroeste 0 -- -- 77
2019-06-12 14:00:00 19.6 13 Noroeste 20 Norte 0 -- -- 81
2019-06-12 13:00:00 19 6 Noroeste 18 Nordeste 0 -- -- 87
2019-06-12 12:00:00 17.3 12 Norte 21 Norte 0.2 -- -- 98
2019-06-12 11:00:00 17.3 8 Norte 23 Nordeste 0 -- -- 98
2019-06-12 10:00:00 16.5 12 Nordeste 18 Nordeste 2 -- -- 99
2019-06-12 09:00:00 16.5 7 Noroeste 14 Noroeste 2.8 -- -- 98
2019-06-12 08:00:00 16.6 5 Norte 8 Norte 0.2 -- -- 97
2019-06-12 07:00:00 16.4 4 Este 10 Norte 0.2 -- -- 97
2019-06-12 06:00:00 16.3 6 Sudeste 16 Este 0.8 -- -- 96
2019-06-12 05:00:00 16.5 6 Norte 12 Norte 0.4 -- -- 96
2019-06-12 04:00:00 16.6 2 Sur 7 Nordeste 0.2 -- -- 96
2019-06-12 03:00:00 16.5 3 Sudeste 9 Norte 1 -- -- 96
2019-06-12 02:00:00 16.6 3 Sudeste 13 Nordeste 0 -- -- 94
2019-06-12 01:00:00 17 3 Oeste 10 Noroeste 0.4 -- -- 94
2019-06-12 00:00:00 17.3 6 Noroeste 12 Noroeste 0 -- -- 92
2019-06-11 23:00:00 17 5 Noroeste 14 Oeste 0.2 -- -- 93
2019-06-11 22:00:00 17.3 5 Oeste 17 Oeste 0 -- -- 94
2019-06-11 21:00:00 17.8 9 Oeste 13 Noroeste 0 -- -- 92
2019-06-11 20:00:00 18.3 6 Noroeste 13 Oeste 0 -- -- 89
2019-06-11 19:00:00 21 9 Oeste 17 Oeste 0 -- -- 79
2019-06-11 18:00:00 19.2 6 Noroeste 14 Noroeste 0.4 -- -- 92
2019-06-11 17:00:00 18 10 Norte 18 Oeste 0.6 -- -- 92
2019-06-11 16:00:00 20.6 11 Oeste 21 Norte 0 -- -- 77
2019-06-11 15:00:00 20.9 10 Oeste 17 Oeste 0 -- -- 79
2019-06-11 14:00:00 20.3 8 Oeste 14 Oeste 0 -- -- 83
2019-06-11 13:00:00 19.2 7 Noroeste 17 Oeste 0 -- -- 83
2019-06-11 12:00:00 19.1 8 Oeste 15 Noroeste 0.2 -- -- 84
2019-06-11 11:00:00 18.2 6 Oeste 17 Sur 0.2 -- -- 83
2019-06-11 10:00:00 18 6 Norte 19 Este 0 -- -- 81
2019-06-11 09:00:00 16.6 5 Este 19 Sur 0 -- -- 86
2019-06-11 08:00:00 16.8 4 Sur 19 Sudoeste 0 -- -- 78
2019-06-11 07:00:00 16.4 4 Norte 15 Noroeste 0 -- -- 82
2019-06-11 06:00:00 16.2 2 Sudoeste 7 Oeste 0 -- -- 86
2019-06-11 05:00:00 16.1 4 Nordeste 13 Norte 0 -- -- 88
2019-06-11 04:00:00 16.4 4 Sur 8 Sur 0 -- -- 82
2019-06-11 03:00:00 16.1 3 Nordeste 9 Este 0 -- -- 85
2019-06-11 02:00:00 16.1 4 Este 13 Nordeste 0 -- -- 84
2019-06-11 01:00:00 16.3 4 Nordeste 10 Norte 0 -- -- 82
2019-06-11 00:00:00 17 6 Nordeste 17 Nordeste 0 -- -- 80
2019-06-10 23:00:00 17.1 7 Nordeste 20 Nordeste 0 -- -- 83
2019-06-10 22:00:00 17.6 13 Nordeste 21 Nordeste 0 -- -- 84
2019-06-10 21:00:00 17.9 6 Norte 15 Norte 0 -- -- 83
2019-06-10 20:00:00 18.1 5 Nordeste 21 Este 0 -- -- 86
2019-06-10 19:00:00 19 14 Nordeste 25 Norte 0 -- -- 77
2019-06-10 18:00:00 21.3 14 Norte 23 Noroeste 0 -- -- 67
2019-06-10 17:00:00 20.6 15 Norte 28 Norte 0 -- -- 68
2019-06-10 16:00:00 20.7 13 Norte 30 Norte 0 -- -- 70
2019-06-10 15:00:00 21.1 11 Noroeste 19 Noroeste 0 -- -- 70
2019-06-10 14:00:00 20.7 9 Noroeste 18 Noroeste 0 -- -- 70
2019-06-10 13:00:00 20.8 11 Noroeste 17 Noroeste 0 -- -- 71
2019-06-10 12:00:00 20.3 9 Noroeste 16 Norte 0 -- -- 72
2019-06-10 11:00:00 19.4 5 Norte 18 Nordeste 0 -- -- 72
2019-06-10 10:00:00 18.4 6 Norte 14 Nordeste 0 -- -- 72
2019-06-10 09:00:00 17.8 4 Norte 16 Nordeste 0 -- -- 72
2019-06-10 08:00:00 16.9 5 Norte 12 Nordeste 0 -- -- 81
2019-06-10 07:00:00 16.7 4 Este 12 Nordeste 0 -- -- 81
2019-06-10 06:00:00 16.6 5 Nordeste 18 Nordeste 0 -- -- 77
2019-06-10 05:00:00 16.7 10 Nordeste 17 Nordeste 0 -- -- 80
2019-06-10 04:00:00 16.7 7 Nordeste 17 Nordeste 0 -- -- 79
2019-06-10 03:00:00 16.9 11 Nordeste 20 Nordeste 0 -- -- 77
2019-06-10 02:00:00 17.1 4 Este 18 Nordeste 0 -- -- 76
2019-06-10 01:00:00 17.1 12 Nordeste 19 Nordeste 0 -- -- 76
2019-06-10 00:00:00 17 8 Nordeste 19 Nordeste 0 -- -- 75
2019-06-09 23:00:00 17.2 6 Nordeste 17 Nordeste 0 -- -- 76
2019-06-09 22:00:00 17.5 10 Nordeste 17 Nordeste 0 -- -- 76
2019-06-09 21:00:00 17.6 10 Nordeste 22 Nordeste 0 -- -- 75
2019-06-09 20:00:00 18.4 14 Nordeste 22 Este 0 -- -- 69
2019-06-09 19:00:00 19.2 10 Nordeste 26 Norte 0 -- -- 65
2019-06-09 18:00:00 21.1 13 Nordeste 26 Este 0 -- -- 54
2019-06-09 17:00:00 21 17 Nordeste 39 Norte 0 -- -- 56
2019-06-09 16:00:00 19.7 21 Nordeste 33 Nordeste 0 -- -- 63
2019-06-09 15:00:00 19.7 17 Norte 28 Nordeste 0 -- -- 67
2019-06-09 14:00:00 21.4 12 Nordeste 26 Nordeste 0 -- -- 54
2019-06-09 13:00:00 21.1 13 Nordeste 31 Nordeste 0 -- -- 51
2019-06-09 12:00:00 20.4 18 Nordeste 33 Nordeste 0 -- -- 57
2019-06-09 11:00:00 18.5 11 Nordeste 21 Nordeste 0 -- -- 72
2019-06-09 10:00:00 18.8 7 Este 17 Nordeste 0 -- -- 59
2019-06-09 09:00:00 18.4 11 Nordeste 17 Nordeste 0 -- -- 65
2019-06-09 08:00:00 17.1 9 Nordeste 19 Nordeste 0 -- -- 73
2019-06-09 07:00:00 15.8 9 Este 23 Nordeste 0 -- -- 78
2019-06-09 06:00:00 16.5 13 Este 22 Nordeste 0 -- -- 75
2019-06-09 05:00:00 16.2 8 Nordeste 18 Este 0 -- -- 80
2019-06-09 04:00:00 15.2 6 Sur 12 Sur 0 -- -- 81
2019-06-09 03:00:00 16 10 Este 18 Nordeste 0 -- -- 79
2019-06-09 02:00:00 16.7 14 Nordeste 23 Nordeste 0 -- -- 76
2019-06-09 01:00:00 16.8 10 Nordeste 22 Nordeste 0 -- -- 78
2019-06-09 00:00:00 16.8 15 Nordeste 26 Nordeste 0 -- -- 77
2019-06-08 23:00:00 17.3 14 Nordeste 28 Nordeste 0 -- -- 78
2019-06-08 22:00:00 17.6 12 Nordeste 25 Nordeste 0 -- -- 77
2019-06-08 21:00:00 17.6 12 Nordeste 22 Nordeste 0 -- -- 80
2019-06-08 20:00:00 18.3 13 Nordeste 30 Norte 0 -- -- 74
2019-06-08 19:00:00 18.9 12 Noroeste 23 Norte 0 -- -- 75
2019-06-08 18:00:00 20 13 Norte 23 Norte 0 -- -- 64
2019-06-08 17:00:00 20.3 12 Noroeste 22 Noroeste 0 -- -- 65
2019-06-08 16:00:00 19.8 13 Norte 24 Noroeste 0 -- -- 65
2019-06-08 15:00:00 20.4 12 Noroeste 26 Norte 0 -- -- 62
2019-06-08 14:00:00 20.5 13 Norte 29 Norte 0 -- -- 68
2019-06-08 13:00:00 20.3 15 Nordeste 29 Nordeste 0 -- -- 69
2019-06-08 12:00:00 19.3 17 Nordeste 29 Nordeste 0 -- -- 78
2019-06-08 11:00:00 19.1 18 Nordeste 30 Este 0 -- -- 78
2019-06-08 10:00:00 18.3 14 Nordeste 27 Este 0 -- -- 77
2019-06-08 09:00:00 17.5 16 Nordeste 31 Nordeste 0 -- -- 89
2019-06-08 08:00:00 16.9 18 Este 29 Nordeste 0 -- -- 93
2019-06-08 07:00:00 17.2 14 Este 23 Este 0 -- -- 86
2019-06-08 06:00:00 17.1 0 Calma 21 Este 0 -- -- 92
2019-06-08 05:00:00 17.2 13 Este 22 Este 0.2 -- -- 93
2019-06-08 04:00:00 17.3 12 Este 25 Nordeste 0 -- -- 96
2019-06-08 03:00:00 17.3 16 Nordeste 24 Nordeste 0 -- -- 96
2019-06-08 02:00:00 17.8 8 Nordeste 13 Nordeste 0.2 -- -- 95
2019-06-08 01:00:00 17.8 2 Nordeste 10 Norte 0.2 -- -- 92
2019-06-08 00:00:00 18.5 5 Noroeste 9 Norte 0 -- -- 84
2019-06-07 23:00:00 18.5 3 Este 5 Este 0 -- -- 82
2019-06-07 22:00:00 18.1 4 Sudeste 9 Norte 0 -- -- 84
2019-06-07 21:00:00 18.5 5 Norte 10 Noroeste 0 -- -- 87
2019-06-07 20:00:00 19 7 Norte 18 Norte 0 -- -- 83
2019-06-07 19:00:00 21 10 Norte 18 Norte 0 -- -- 74
2019-06-07 18:00:00 19.5 7 Noroeste 21 Noroeste 0 -- -- 78
2019-06-07 17:00:00 21.7 12 Norte 22 Noroeste 0 -- -- 66
2019-06-07 16:00:00 21.5 11 Noroeste 19 Norte 0 -- -- 66
2019-06-07 15:00:00 21.2 10 Noroeste 18 Norte 0 -- -- 68
2019-06-07 14:00:00 20.8 8 Noroeste 13 Noroeste 0 -- -- 69
2019-06-07 13:00:00 18 5 Nordeste 13 Norte 0 -- -- 86
2019-06-07 12:00:00 19.3 7 Noroeste 14 Noroeste 0 -- -- 70
2019-06-07 11:00:00 19.7 7 Oeste 12 Oeste 0 -- -- 69
2019-06-07 10:00:00 17.6 6 Norte 9 Norte 0 -- -- 77
2019-06-07 09:00:00 17.3 5 Norte 9 Norte 0 -- -- 79
2019-06-07 08:00:00 16.7 0 Calma 3 Sur 0 -- -- 80
2019-06-07 07:00:00 15.7 0 Calma 5 Sur 0 -- -- 84
2019-06-07 06:00:00 16.3 3 Sudoeste 7 Noroeste 0 -- -- 81
2019-06-07 05:00:00 16.4 5 Noroeste 11 Norte 0 -- -- 79
2019-06-07 04:00:00 16.8 4 Noroeste 10 Noroeste 0 -- -- 76
2019-06-07 03:00:00 16.6 4 Oeste 12 Sudoeste 0 -- -- 76
2019-06-07 02:00:00 16.6 5 Noroeste 9 Noroeste 0 -- -- 77
2019-06-07 01:00:00 16.6 5 Noroeste 11 Noroeste 0 -- -- 76
2019-06-07 00:00:00 17 5 Noroeste 14 Sudoeste 0 -- -- 72
2019-06-06 23:00:00 16.9 4 Noroeste 10 Oeste 0 -- -- 71
2019-06-06 22:00:00 16.7 5 Noroeste 14 Norte 0 -- -- 72
2019-06-06 21:00:00 17.3 8 Noroeste 18 Noroeste 0 -- -- 70
2019-06-06 20:00:00 19.1 12 Noroeste 19 Noroeste 0 -- -- 62
2019-06-06 19:00:00 19.7 11 Norte 19 Noroeste 0 -- -- 62
2019-06-06 18:00:00 20.1 11 Noroeste 21 Noroeste 0 -- -- 61
2019-06-06 17:00:00 20.5 13 Norte 23 Noroeste 0 -- -- 60
2019-06-06 16:00:00 20.1 12 Norte 26 Noroeste 0 -- -- 62
2019-06-06 15:00:00 20.2 17 Norte 31 Nordeste 0 -- -- 56
2019-06-06 14:00:00 20.2 9 Norte 24 Norte 0 -- -- 62
2019-06-06 13:00:00 17.3 6 Norte 17 Noroeste 0 -- -- 81
2019-06-06 12:00:00 16.9 12 Norte 28 Norte 0 -- -- 79
2019-06-06 11:00:00 18.4 10 Norte 21 Noroeste 0 -- -- 70
2019-06-06 10:00:00 18.9 5 Noroeste 19 Nordeste 0 -- -- 63
2019-06-06 09:00:00 18.7 13 Nordeste 21 Nordeste 0 -- -- 63
2019-06-06 08:00:00 16.8 12 Nordeste 17 Nordeste 0 -- -- 74
2019-06-06 07:00:00 16.5 5 Norte 12 Nordeste 0 -- -- 78
2019-06-06 06:00:00 16.1 10 Nordeste 15 Norte 0 -- -- 80
2019-06-06 05:00:00 16 7 Nordeste 18 Nordeste 0 -- -- 81
2019-06-06 04:00:00 16.5 10 Nordeste 21 Nordeste 0 -- -- 82
2019-06-06 03:00:00 16.5 10 Nordeste 21 Nordeste 0 -- -- 85
2019-06-06 02:00:00 17 13 Nordeste 25 Nordeste 0 -- -- 83
2019-06-06 01:00:00 16.8 13 Nordeste 21 Nordeste 0 -- -- 87
2019-06-06 00:00:00 17.2 10 Nordeste 17 Norte 0 -- -- 89
2019-06-05 23:00:00 17.4 4 Norte 22 Nordeste 0 -- -- 86
2019-06-05 22:00:00 17.6 13 Nordeste 20 Nordeste 0 -- -- 85
2019-06-05 21:00:00 18.2 13 Nordeste 25 Nordeste 0 -- -- 82
2019-06-05 20:00:00 19 14 Norte 24 Norte 0 -- -- 80
2019-06-05 19:00:00 19.7 14 Nordeste 25 Norte 0 -- -- 78
2019-06-05 18:00:00 20.4 10 Norte 28 Nordeste 0 -- -- 77
2019-06-05 17:00:00 21.3 12 Norte 30 Nordeste 0 -- -- 72
2019-06-05 16:00:00 21.2 11 Norte 25 Noroeste 0 -- -- 76
2019-06-05 15:00:00 20.6 14 Norte 30 Norte 0 -- -- 78
2019-06-05 14:00:00 22 14 Nordeste 30 Nordeste 0 -- -- 70
2019-06-05 13:00:00 21.6 16 Nordeste 28 Nordeste 0 -- -- 70
2019-06-05 12:00:00 21.1 18 Nordeste 28 Nordeste 0 -- -- 73
2019-06-05 11:00:00 20.6 15 Nordeste 27 Nordeste 0 -- -- 77
2019-06-05 10:00:00 18.2 12 Nordeste 23 Nordeste 0 -- -- 92
2019-06-05 09:00:00 18.4 8 Nordeste 15 Nordeste 0 -- -- 89
2019-06-05 08:00:00 17.8 3 Este 6 Sur 0 -- -- 90
2019-06-05 07:00:00 17.6 5 Este 11 Nordeste 0 -- -- 88
2019-06-05 06:00:00 17.8 3 Nordeste 8 Este 0 -- -- 86
2019-06-05 05:00:00 17 6 Sur 11 Nordeste 0 -- -- 94
2019-06-05 04:00:00 17.7 3 Norte 15 Norte 0 -- -- 95
2019-06-05 03:00:00 18.1 6 Norte 14 Norte 0 -- -- 93
2019-06-05 02:00:00 18.6 7 Noroeste 15 Noroeste 0 -- -- 84
2019-06-05 01:00:00 18.5 3 Noroeste 13 Este 0 -- -- 84
2019-06-05 00:00:00 18.4 6 Este 12 Sudoeste 0 -- -- 81
2019-06-04 23:00:00 18.1 3 Oeste 8 Oeste 0 -- -- 85
2019-06-04 22:00:00 18.2 3 Nordeste 15 Nordeste 0 -- -- 85
2019-06-04 21:00:00 18.6 8 Norte 16 Nordeste 0 -- -- 82
2019-06-04 20:00:00 20.9 10 Nordeste 18 Norte 0 -- -- 71
2019-06-04 19:00:00 21.4 11 Norte 23 Norte 0 -- -- 69
2019-06-04 18:00:00 22.7 12 Nordeste 22 Nordeste 0 -- -- 65
2019-06-04 17:00:00 22.8 13 Nordeste 25 Nordeste 0 -- -- 68
2019-06-04 16:00:00 21.7 12 Norte 22 Nordeste 0 -- -- 71
2019-06-04 15:00:00 23.7 14 Nordeste 29 Norte 0 -- -- 64
2019-06-04 14:00:00 23.1 14 Nordeste 25 Nordeste 0 -- -- 67
2019-06-04 13:00:00 22.7 12 Nordeste 23 Nordeste 0 -- -- 72
2019-06-04 12:00:00 22.9 13 Nordeste 24 Nordeste 0 -- -- 65
2019-06-04 11:00:00 23.1 13 Nordeste 21 Nordeste 0 -- -- 57
2019-06-04 10:00:00 23 13 Nordeste 18 Nordeste 0 -- -- 51
2019-06-04 09:00:00 23.2 5 Nordeste 9 Nordeste 0 -- -- 37
2019-06-04 08:00:00 20.5 9 Este 13 Este 0 -- -- 38
2019-06-04 07:00:00 18.1 4 Sur 14 Este 0 -- -- 42
2019-06-04 06:00:00 19.7 10 Sudeste 15 Este 0 -- -- 34
2019-06-04 05:00:00 20 9 Este 19 Sudeste 0 -- -- 34
2019-06-04 04:00:00 21.2 10 Este 21 Este 0 -- -- 32
2019-06-04 03:00:00 20.7 11 Sudeste 16 Sudeste 0 -- -- 32
2019-06-04 02:00:00 21.4 13 Sudeste 19 Este 0 -- -- 30
2019-06-04 01:00:00 21.8 10 Este 15 Sudeste 0 -- -- 28
2019-06-04 00:00:00 20.7 4 Este 14 Sudeste 0 -- -- 31
2019-06-03 23:00:00 20.5 3 Norte 15 Sudeste 0 -- -- 69
2019-06-03 22:00:00 21.3 2 Oeste 12 Este 0 -- -- 73
2019-06-03 21:00:00 22.5 3 Nordeste 10 Norte 0 -- -- 48
2019-06-03 20:00:00 24.9 5 Noroeste 13 Noroeste 0 -- -- 59
2019-06-03 19:00:00 27.9 5 Norte 18 Norte 0 -- -- 30
2019-06-03 18:00:00 26.3 8 Norte 17 Norte 0 -- -- 43
2019-06-03 17:00:00 25.8 14 Nordeste 23 Norte 0 -- -- 62
2019-06-03 16:00:00 24.9 9 Norte 18 Nordeste 0 -- -- 68
2019-06-03 15:00:00 24.3 8 Noroeste 18 Noroeste 0 -- -- 71
2019-06-03 14:00:00 24.7 9 Norte 21 Norte 0 -- -- 69
2019-06-03 13:00:00 23.9 10 Norte 17 Norte 0 -- -- 71
2019-06-03 12:00:00 22.9 5 Noroeste 11 Noroeste 0 -- -- 79
2019-06-03 11:00:00 22.4 5 Noroeste 11 Nordeste 0 -- -- 75
2019-06-03 10:00:00 22.5 4 Norte 9 Norte 0 -- -- 74
2019-06-03 09:00:00 20.8 2 Norte 6 Norte 0 -- -- 78
2019-06-03 08:00:00 18.3 0 Calma 4 Sudeste 0 -- -- 82
2019-06-03 07:00:00 16.6 0 Calma 8 Sur 0 -- -- 86
2019-06-03 06:00:00 17 0 Calma 5 Sur 0 -- -- 88
2019-06-03 05:00:00 17.6 0 Calma 18 Nordeste 0 -- -- 88
2019-06-03 04:00:00 23.4 13 Nordeste 27 Sudeste 0 -- -- 27
2019-06-03 03:00:00 21.7 13 Este 23 Este 0 -- -- 36
2019-06-03 02:00:00 17.5 3 Sudoeste 10 Nordeste 0 -- -- 96
2019-06-03 01:00:00 17.6 2 Noroeste 8 Sur 0 -- -- 96
2019-06-03 00:00:00 18.1 4 Sudoeste 8 Sudoeste 0 -- -- 93
2019-06-02 23:00:00 17.7 0 Calma 6 Oeste 0 -- -- 94
2019-06-02 22:00:00 18.7 3 Oeste 12 Nordeste 0 -- -- 94
2019-06-02 21:00:00 19.2 7 Nordeste 13 Nordeste 0 -- -- 91
2019-06-02 20:00:00 21.1 9 Nordeste 14 Norte 0 -- -- 83
2019-06-02 19:00:00 21.9 6 Norte 12 Nordeste 0 -- -- 78
2019-06-02 18:00:00 22.6 6 Norte 17 Norte 0 -- -- 75
2019-06-02 17:00:00 22.3 8 Noroeste 14 Noroeste 0 -- -- 76
2019-06-02 16:00:00 22.3 8 Noroeste 14 Norte 0 -- -- 76
2019-06-02 15:00:00 21.5 7 Noroeste 16 Norte 0 -- -- 80
2019-06-02 14:00:00 21.4 8 Norte 19 Norte 0 -- -- 80
2019-06-02 13:00:00 21.1 9 Norte 15 Norte 0 -- -- 80
2019-06-02 12:00:00 20.8 7 Noroeste 14 Norte 0 -- -- 81
2019-06-02 11:00:00 20.7 6 Norte 12 Norte 0 -- -- 82
2019-06-02 10:00:00 19.7 6 Noroeste 16 Nordeste 0 -- -- 88
2019-06-02 09:00:00 17.3 5 Nordeste 11 Nordeste 0 -- -- 97
2019-06-02 08:00:00 17 4 Este 6 Este 0 -- -- 97
2019-06-02 07:00:00 16.7 3 Oeste 9 Sudeste 0 -- -- 96
2019-06-02 06:00:00 15.9 4 Sur 8 Sudoeste 0 -- -- 96
2019-06-02 05:00:00 16.4 4 Sudoeste 10 Sur 0 -- -- 95
2019-06-02 04:00:00 16.4 5 Sudoeste 10 Sudeste 0 -- -- 94
2019-06-02 03:00:00 16.2 5 Sur 8 Sur 0 -- -- 93
2019-06-02 02:00:00 16.1 4 Sudeste 13 Este 0 -- -- 92
2019-06-02 01:00:00 17 5 Norte 11 Este 0 -- -- 89
2019-06-02 00:00:00 18.2 6 Este 12 Nordeste 0 -- -- 86
2019-06-01 23:00:00 18.3 4 Sudeste 10 Este 0 -- -- 86
2019-06-01 22:00:00 18.4 4 Nordeste 11 Noroeste 0 -- -- 85
2019-06-01 21:00:00 18.4 5 Norte 10 Nordeste 0 -- -- 86
2019-06-01 20:00:00 18.7 6 Norte 13 Norte 0 -- -- 86
2019-06-01 19:00:00 19.8 6 Noroeste 15 Noroeste 0 -- -- 81
2019-06-01 18:00:00 19.8 7 Noroeste 16 Noroeste 0 -- -- 81
2019-06-01 17:00:00 20.6 8 Noroeste 19 Noroeste 0 -- -- 77
2019-06-01 16:00:00 21.9 9 Noroeste 18 Oeste 0 -- -- 72
2019-06-01 15:00:00 21.3 9 Noroeste 15 Noroeste 0 -- -- 75
2019-06-01 14:00:00 20.1 9 Norte 16 Norte 0 -- -- 79
2019-06-01 13:00:00 20 7 Noroeste 15 Oeste 0 -- -- 80
2019-06-01 12:00:00 19.1 6 Noroeste 14 Noroeste 0 -- -- 83
2019-06-01 11:00:00 19.7 10 Noroeste 15 Norte 0 -- -- 79
2019-06-01 10:00:00 20 7 Nordeste 13 Nordeste 0 -- -- 76
2019-06-01 09:00:00 17.7 8 Nordeste 12 Este 0 -- -- 87
2019-06-01 08:00:00 17.1 7 Nordeste 11 Nordeste 0 -- -- 89
2019-06-01 07:00:00 16.6 3 Sudeste 9 Sudeste 0 -- -- 89
2019-06-01 06:00:00 16.8 5 Sudeste 10 Sudeste 0 -- -- 88
2019-06-01 05:00:00 17.1 2 Este 10 Nordeste 0 -- -- 88
2019-06-01 04:00:00 17.1 6 Nordeste 10 Norte 0 -- -- 90
2019-06-01 03:00:00 16.4 6 Este 10 Este 0 -- -- 91
2019-06-01 02:00:00 16.2 6 Sudeste 9 Este 0 -- -- 89
2019-06-01 01:00:00 17 4 Este 10 Norte 0 -- -- 88
2019-06-01 00:00:00 17.9 8 Nordeste 12 Nordeste 0 -- -- 87
2019-05-31 23:00:00 18.1 6 Nordeste 10 Nordeste 0 -- -- 88
2019-05-31 22:00:00 18.4 4 Nordeste 9 Noroeste 0 -- -- 86
2019-05-31 21:00:00 18.7 5 Noroeste 12 Noroeste 0 -- -- 85
2019-05-31 20:00:00 20.6 8 Noroeste 15 Noroeste 0 -- -- 77
2019-05-31 19:00:00 21.1 9 Norte 18 Oeste 0 -- -- 74
2019-05-31 18:00:00 20.8 9 Noroeste 19 Noroeste 0 -- -- 77
2019-05-31 17:00:00 21.8 10 Noroeste 18 Norte 0 -- -- 71
2019-05-31 16:00:00 21 10 Noroeste 18 Noroeste 0 -- -- 72
2019-05-31 15:00:00 20.4 10 Noroeste 18 Oeste 0 -- -- 75
2019-05-31 14:00:00 19.9 9 Noroeste 15 Noroeste 0 -- -- 73
2019-05-31 13:00:00 20.5 8 Noroeste 15 Oeste 0 -- -- 72
2019-05-31 12:00:00 19.3 8 Noroeste 14 Noroeste 0 -- -- 73
2019-05-31 11:00:00 18.2 7 Noroeste 13 Noroeste 0 -- -- 80
2019-05-31 10:00:00 18.7 8 Noroeste 12 Oeste 0 -- -- 77
2019-05-31 09:00:00 17.4 2 Noroeste 9 Norte 0 -- -- 80
2019-05-31 08:00:00 16.7 5 Nordeste 11 Nordeste 0 -- -- 85
2019-05-31 07:00:00 16.6 4 Nordeste 12 Norte 0 -- -- 85
2019-05-31 06:00:00 16.6 4 Este 11 Nordeste 0 -- -- 84
2019-05-31 05:00:00 16.6 5 Este 10 Este 0 -- -- 84
2019-05-31 04:00:00 16.6 5 Nordeste 12 Este 0 -- -- 83
2019-05-31 03:00:00 16.6 2 Sudeste 14 Nordeste 0 -- -- 84
2019-05-31 02:00:00 16.6 2 Sudeste 12 Nordeste 0 -- -- 84
2019-05-31 01:00:00 16.7 4 Sudeste 9 Sudeste 0 -- -- 84
2019-05-31 00:00:00 16.9 5 Noroeste 9 Noroeste 0 -- -- 83
2019-05-30 23:00:00 17.3 4 Noroeste 10 Noroeste 0 -- -- 83
2019-05-30 22:00:00 17.5 3 Este 11 Nordeste 0 -- -- 82
2019-05-30 21:00:00 17.8 7 Noroeste 13 Norte 0 -- -- 81
2019-05-30 20:00:00 18.1 8 Norte 13 Noroeste 0 -- -- 81
2019-05-30 19:00:00 18.5 8 Norte 17 Noroeste 0 -- -- 78
2019-05-30 18:00:00 19.6 11 Noroeste 19 Noroeste 0 -- -- 74
2019-05-30 17:00:00 20.4 11 Norte 20 Noroeste 0 -- -- 71
2019-05-30 16:00:00 20.4 12 Norte 23 Norte 0 -- -- 71
2019-05-30 15:00:00 19.9 10 Noroeste 19 Norte 0 -- -- 69
2019-05-30 14:00:00 19.7 9 Norte 18 Noroeste 0 -- -- 71
2019-05-30 13:00:00 19.5 10 Noroeste 19 Norte 0 -- -- 71
2019-05-30 12:00:00 19.5 8 Noroeste 14 Norte 0 -- -- 70
2019-05-30 11:00:00 19 6 Noroeste 13 Oeste 0 -- -- 72
2019-05-30 10:00:00 18.2 7 Noroeste 11 Norte 0 -- -- 75
2019-05-30 09:00:00 17.3 3 Nordeste 10 Sudeste 0 -- -- 77
2019-05-30 08:00:00 16 5 Sur 11 Sur 0 -- -- 81
2019-05-30 07:00:00 16 5 Este 10 Este 0 -- -- 82
2019-05-30 06:00:00 16.4 3 Noroeste 8 Oeste 0 -- -- 83
2019-05-30 05:00:00 16.4 3 Norte 10 Nordeste 0 -- -- 82
2019-05-30 04:00:00 16.6 6 Este 11 Este 0 -- -- 82
2019-05-30 03:00:00 16.7 4 Este 13 Nordeste 0 -- -- 81
2019-05-30 02:00:00 16.8 5 Norte 9 Norte 0 -- -- 80
2019-05-30 01:00:00 16.9 4 Este 13 Nordeste 0 -- -- 80
2019-05-30 00:00:00 17.2 3 Nordeste 10 Noroeste 0 -- -- 80
2019-05-29 23:00:00 17.2 7 Norte 12 Nordeste 0 -- -- 79
2019-05-29 22:00:00 17.5 6 Este 14 Nordeste 0 -- -- 79
2019-05-29 21:00:00 17.8 6 Norte 18 Norte 0 -- -- 80
2019-05-29 20:00:00 19.3 12 Norte 20 Norte 0 -- -- 74
2019-05-29 19:00:00 20.1 11 Norte 18 Noroeste 0 -- -- 70
2019-05-29 18:00:00 20.4 10 Norte 21 Noroeste 0 -- -- 68
2019-05-29 17:00:00 20.2 13 Noroeste 23 Norte 0 -- -- 68
2019-05-29 16:00:00 19.9 14 Noroeste 22 Noroeste 0 -- -- 68
2019-05-29 15:00:00 19.6 13 Norte 22 Norte 0 -- -- 69
2019-05-29 14:00:00 19.8 11 Noroeste 22 Noroeste 0 -- -- 68
2019-05-29 13:00:00 19.3 9 Noroeste 19 Noroeste 0 -- -- 72
2019-05-29 12:00:00 19.2 10 Noroeste 18 Norte 0 -- -- 70
2019-05-29 11:00:00 19 7 Noroeste 14 Norte 0 -- -- 72
2019-05-29 10:00:00 17.2 9 Norte 15 Nordeste 0 -- -- 81
2019-05-29 09:00:00 16.8 4 Noroeste 12 Nordeste 0 -- -- 84
2019-05-29 08:00:00 16.5 6 Norte 14 Nordeste 0 -- -- 84
2019-05-29 07:00:00 16.5 5 Nordeste 10 Nordeste 0 -- -- 82
2019-05-29 06:00:00 16.6 4 Norte 12 Nordeste 0 -- -- 82
2019-05-29 05:00:00 16.7 5 Nordeste 9 Nordeste 0 -- -- 86
2019-05-29 04:00:00 16.8 3 Sudeste 8 Nordeste 0 -- -- 80
2019-05-29 03:00:00 17 4 Norte 12 Nordeste 0 -- -- 81
2019-05-29 02:00:00 17.1 7 Nordeste 13 Norte 0 -- -- 83
2019-05-29 01:00:00 17.3 8 Nordeste 12 Nordeste 0 -- -- 83
2019-05-29 00:00:00 17.5 4 Este 13 Nordeste 0 -- -- 79
2019-05-28 23:00:00 17.6 6 Nordeste 14 Nordeste 0 -- -- 80
2019-05-28 22:00:00 17.9 10 Nordeste 19 Nordeste 0 -- -- 79
2019-05-28 21:00:00 18.2 9 Nordeste 16 Nordeste 0 -- -- 78
2019-05-28 20:00:00 19.8 8 Nordeste 22 Nordeste 0 -- -- 75
2019-05-28 19:00:00 20.5 11 Norte 23 Norte 0 -- -- 70
2019-05-28 18:00:00 21.5 12 Norte 23 Norte 0 -- -- 68
2019-05-28 17:00:00 21 12 Norte 25 Noroeste 0 -- -- 67
2019-05-28 16:00:00 20.6 14 Norte 24 Norte 0 -- -- 70
2019-05-28 15:00:00 20.6 10 Norte 24 Norte 0 -- -- 72
2019-05-28 14:00:00 19.4 14 Norte 27 Norte 0 -- -- 73
2019-05-28 13:00:00 20.6 13 Norte 22 Nordeste 0 -- -- 73
2019-05-28 12:00:00 20 12 Norte 23 Nordeste 0 -- -- 73
2019-05-28 11:00:00 19.3 13 Nordeste 26 Nordeste 0 -- -- 75
2019-05-28 10:00:00 18.8 13 Nordeste 22 Nordeste 0 -- -- 78
2019-05-28 09:00:00 17.8 11 Nordeste 20 Nordeste 0 -- -- 86
2019-05-28 08:00:00 16.9 9 Nordeste 15 Este 0 -- -- 93
2019-05-28 07:00:00 16.9 6 Este 14 Este 0 -- -- 91
2019-05-28 06:00:00 16.8 8 Este 13 Este 0 -- -- 93
2019-05-28 05:00:00 16.9 8 Este 13 Este 0 -- -- 92
2019-05-28 04:00:00 16.9 10 Nordeste 15 Este 0 -- -- 92
2019-05-28 03:00:00 16.8 7 Este 14 Este 0 -- -- 92
2019-05-28 02:00:00 16.6 9 Este 14 Nordeste 0 -- -- 94
2019-05-28 01:00:00 16.1 10 Este 13 Este 0 -- -- 92
2019-05-28 00:00:00 16.6 7 Este 11 Sudeste 0 -- -- 89
2019-05-27 23:00:00 17.1 5 Este 9 Este 0 -- -- 90
2019-05-27 22:00:00 17.5 5 Nordeste 13 Nordeste 0 -- -- 90
2019-05-27 21:00:00 18.1 8 Nordeste 20 Nordeste 0 -- -- 81
2019-05-27 20:00:00 19.9 15 Nordeste 22 Nordeste 0 -- -- 78
2019-05-27 19:00:00 21.4 14 Nordeste 26 Nordeste 0 -- -- 73
2019-05-27 18:00:00 22.3 15 Nordeste 26 Nordeste 0 -- -- 70
2019-05-27 17:00:00 20.8 12 Norte 24 Norte 0 -- -- 76
2019-05-27 16:00:00 21.5 12 Norte 23 Norte 0 -- -- 72
2019-05-27 15:00:00 20.7 11 Norte 20 Noroeste 0 -- -- 76
2019-05-27 14:00:00 20.8 10 Norte 24 Norte 0 -- -- 76
2019-05-27 13:00:00 20.3 11 Norte 18 Norte 0 -- -- 76
2019-05-27 12:00:00 20.6 10 Norte 24 Norte 0 -- -- 74
2019-05-27 11:00:00 20.9 12 Nordeste 20 Nordeste 0 -- -- 72
2019-05-27 10:00:00 19.3 8 Nordeste 19 Nordeste 0 -- -- 79
2019-05-27 09:00:00 16.9 13 Nordeste 19 Nordeste 0 -- -- 90
2019-05-27 08:00:00 16 9 Este 18 Este 0 -- -- 92
2019-05-27 07:00:00 14.8 8 Este 15 Este 0 -- -- 89
2019-05-27 06:00:00 15.3 8 Este 12 Este 0 -- -- 92
2019-05-27 05:00:00 15.6 10 Este 16 Nordeste 0 -- -- 91
2019-05-27 04:00:00 16.3 9 Este 15 Este 0 -- -- 92
2019-05-27 03:00:00 15.8 9 Este 12 Este 0 -- -- 92
2019-05-27 02:00:00 16.5 8 Este 11 Este 0 -- -- 92
2019-05-27 01:00:00 17 6 Este 12 Sudeste 0 -- -- 89
2019-05-27 00:00:00 16.7 7 Sudeste 11 Sudeste 0 -- -- 88
2019-05-26 23:00:00 17 6 Este 14 Este 0 -- -- 88
2019-05-26 22:00:00 16.9 10 Este 15 Este 0 -- -- 87
2019-05-26 21:00:00 17.8 10 Nordeste 17 Nordeste 0 -- -- 82
2019-05-26 20:00:00 20.1 13 Nordeste 22 Nordeste 0 -- -- 71
2019-05-26 19:00:00 21.3 11 Norte 25 Norte 0 -- -- 65
2019-05-26 18:00:00 21.9 12 Nordeste 26 Norte 0 -- -- 64
2019-05-26 17:00:00 21.8 13 Nordeste 24 Norte 0 -- -- 66
2019-05-26 16:00:00 20.2 15 Norte 23 Norte 0 -- -- 69
2019-05-26 15:00:00 19.7 13 Norte 22 Norte 0 -- -- 71
2019-05-26 14:00:00 19.4 11 Norte 21 Norte 0 -- -- 75
2019-05-26 13:00:00 19.9 11 Norte 20 Nordeste 0 -- -- 73
2019-05-26 12:00:00 18.7 10 Norte 16 Norte 0 -- -- 81
2019-05-26 11:00:00 18.7 7 Nordeste 14 Nordeste 0 -- -- 79
2019-05-26 10:00:00 18.6 6 Nordeste 15 Nordeste 0 -- -- 76
2019-05-26 09:00:00 17.1 6 Nordeste 12 Nordeste 0 -- -- 87
2019-05-26 08:00:00 16 8 Este 9 Este 0 -- -- 90
2019-05-26 07:00:00 16.1 5 Este 8 Este 0 -- -- 88
2019-05-26 06:00:00 16.5 3 Sudeste 4 Sudeste 0 -- -- 86
2019-05-26 05:00:00 16.5 0 Calma 11 Sur 0 -- -- 85
2019-05-26 04:00:00 16.4 6 Sudeste 9 Sur 0 -- -- 87
2019-05-26 03:00:00 16.7 3 Este 8 Este 0 -- -- 82
2019-05-26 02:00:00 17.1 3 Norte 11 Norte 0 -- -- 79
2019-05-26 01:00:00 17 7 Norte 14 Norte 0 -- -- 78
2019-05-26 00:00:00 16.9 8 Norte 14 Nordeste 0 -- -- 80
2019-05-25 23:00:00 16.6 7 Nordeste 14 Norte 0 -- -- 86
2019-05-25 22:00:00 16.8 3 Noroeste 17 Nordeste 0 -- -- 82
2019-05-25 21:00:00 17.6 9 Nordeste 18 Norte 0 -- -- 84
2019-05-25 20:00:00 18.8 13 Norte 23 Norte 0 -- -- 80
2019-05-25 19:00:00 20.4 10 Norte 22 Nordeste 0 -- -- 71
2019-05-25 18:00:00 21.1 17 Nordeste 25 Nordeste 0 -- -- 66
2019-05-25 17:00:00 21 12 Norte 30 Nordeste 0 -- -- 70
2019-05-25 16:00:00 20.7 18 Nordeste 26 Nordeste 0 -- -- 74
2019-05-25 15:00:00 20.4 12 Norte 24 Nordeste 0 -- -- 74
2019-05-25 14:00:00 19 14 Nordeste 25 Nordeste 0.2 -- -- 90
2019-05-25 13:00:00 17.8 13 Nordeste 22 Nordeste 0 -- -- 94
2019-05-25 12:00:00 18 10 Este 26 Nordeste 0 -- -- 92
2019-05-25 11:00:00 16.7 9 Nordeste 24 Nordeste 0 -- -- 97
2019-05-25 10:00:00 16.4 12 Nordeste 19 Nordeste 0.8 -- -- 98
2019-05-25 09:00:00 16 14 Nordeste 21 Nordeste 0.6 -- -- 98
2019-05-25 08:00:00 16.3 7 Nordeste 18 Nordeste 0.2 -- -- 97
2019-05-25 07:00:00 15.8 8 Sudeste 17 Este 0.4 -- -- 96
2019-05-25 06:00:00 15.9 6 Este 18 Norte 0.2 -- -- 97
2019-05-25 05:00:00 16.2 9 Nordeste 18 Nordeste 0 -- -- 94
2019-05-25 04:00:00 16.5 7 Nordeste 19 Este 0 -- -- 89
2019-05-25 03:00:00 16.8 8 Este 15 Nordeste 0 -- -- 89
2019-05-25 02:00:00 16.8 6 Este 14 Nordeste 0 -- -- 87
2019-05-25 01:00:00 16.7 7 Este 16 Este 0 -- -- 87
2019-05-25 00:00:00 16.8 6 Este 16 Nordeste 0 -- -- 86
2019-05-24 23:00:00 17.2 9 Nordeste 17 Nordeste 0 -- -- 86
2019-05-24 22:00:00 17.5 10 Nordeste 18 Nordeste 0 -- -- 86
2019-05-24 21:00:00 17.8 10 Nordeste 18 Norte 0 -- -- 85
2019-05-24 20:00:00 19.6 13 Nordeste 23 Nordeste 0 -- -- 76
2019-05-24 19:00:00 19.8 13 Nordeste 28 Nordeste 0 -- -- 72
2019-05-24 18:00:00 21.1 18 Nordeste 29 Nordeste 0 -- -- 71
2019-05-24 17:00:00 21.6 19 Nordeste 34 Nordeste 0 -- -- 66
2019-05-24 16:00:00 22 22 Nordeste 34 Nordeste 0 -- -- 68
2019-05-24 15:00:00 21.9 24 Nordeste 35 Nordeste 0 -- -- 66
2019-05-24 14:00:00 21.5 25 Nordeste 37 Nordeste 0 -- -- 69
2019-05-24 13:00:00 21.4 25 Nordeste 41 Nordeste 0 -- -- 67
2019-05-24 12:00:00 20.3 18 Nordeste 34 Nordeste 0 -- -- 71
2019-05-24 11:00:00 18.7 14 Nordeste 27 Nordeste 0 -- -- 80
2019-05-24 10:00:00 17.6 12 Nordeste 19 Nordeste 0 -- -- 85
2019-05-24 09:00:00 17.1 13 Nordeste 19 Este 0 -- -- 87
2019-05-24 08:00:00 16.2 8 Este 12 Sudeste 0 -- -- 90
2019-05-24 07:00:00 15.8 8 Sudeste 12 Este 0 -- -- 89
2019-05-24 06:00:00 16.1 8 Nordeste 12 Nordeste 0 -- -- 90
2019-05-24 05:00:00 16.3 4 Este 13 Nordeste 0 -- -- 89
2019-05-24 04:00:00 16.2 4 Este 10 Este 0 -- -- 89
2019-05-24 03:00:00 16 5 Este 11 Este 0 -- -- 90
2019-05-24 02:00:00 16.5 3 Este 9 Este 0 -- -- 90
2019-05-24 01:00:00 16.7 0 Calma 5 Este 0 -- -- 86
2019-05-24 00:00:00 16.8 0 Calma 11 Nordeste 0 -- -- 84
2019-05-23 23:00:00 16.7 5 Este 18 Nordeste 0 -- -- 82
2019-05-23 22:00:00 17 9 Nordeste 14 Nordeste 0 -- -- 86
2019-05-23 21:00:00 17.2 7 Norte 14 Norte 0 -- -- 89
2019-05-23 20:00:00 17.8 9 Nordeste 18 Norte 0 -- -- 78
2019-05-23 19:00:00 18.4 11 Norte 26 Norte 0 -- -- 82
2019-05-23 18:00:00 18.2 12 Norte 24 Noroeste 0 -- -- 83
2019-05-23 17:00:00 19.7 11 Noroeste 24 Norte 0 -- -- 73
2019-05-23 16:00:00 18.7 13 Norte 29 Norte 0 -- -- 84
2019-05-23 15:00:00 19 12 Norte 27 Norte 0 -- -- 79
2019-05-23 14:00:00 19.2 16 Norte 27 Nordeste 0 -- -- 80
2019-05-23 13:00:00 19.3 14 Nordeste 34 Nordeste 0 -- -- 80
2019-05-23 12:00:00 18.8 8 Nordeste 27 Nordeste 0 -- -- 83
2019-05-23 11:00:00 17.9 12 Nordeste 22 Nordeste 0.2 -- -- 87
2019-05-23 10:00:00 16.8 8 Nordeste 22 Nordeste 0 -- -- 93
2019-05-23 09:00:00 16.9 4 Nordeste 14 Nordeste 0.2 -- -- 92
2019-05-23 08:00:00 16.4 3 Norte 10 Norte 0 -- -- 90
2019-05-23 07:00:00 16.3 4 Noroeste 13 Noroeste 0 -- -- 94
2019-05-23 06:00:00 16.1 2 Nordeste 14 Norte 0 -- -- 93
2019-05-23 05:00:00 16.1 6 Sudeste 19 Nordeste 0.4 -- -- 94
2019-05-23 04:00:00 16.7 4 Noroeste 14 Noroeste 0 -- -- 94
2019-05-23 03:00:00 16.8 4 Sudoeste 14 Este 0.2 -- -- 92
2019-05-23 02:00:00 16.9 4 Sudoeste 11 Este 0 -- -- 86
2019-05-23 01:00:00 16.6 3 Este 15 Nordeste 0 -- -- 90
2019-05-23 00:00:00 16.5 8 Nordeste 27 Nordeste 0 -- -- 88
2019-05-22 23:00:00 17.4 6 Sudoeste 15 Norte 0 -- -- 88
2019-05-22 22:00:00 17.6 5 Noroeste 12 Norte 0 -- -- 90
2019-05-22 21:00:00 17.6 9 Norte 19 Norte 0 -- -- 89
2019-05-22 20:00:00 18.1 13 Norte 19 Norte 0 -- -- 86
2019-05-22 19:00:00 18.2 6 Norte 16 Norte 0 -- -- 86
2019-05-22 18:00:00 19.9 10 Norte 18 Norte 0 -- -- 74
2019-05-22 17:00:00 19.3 11 Norte 20 Norte 0 -- -- 76
2019-05-22 16:00:00 20.7 13 Norte 24 Norte 0 -- -- 66
2019-05-22 15:00:00 20.8 12 Norte 27 Nordeste 0 -- -- 64
2019-05-22 14:00:00 19 14 Norte 24 Norte 0 -- -- 75
2019-05-22 13:00:00 19.2 11 Norte 22 Norte 0 -- -- 77
2019-05-22 12:00:00 18 9 Norte 21 Norte 0 -- -- 81
2019-05-22 11:00:00 18.1 9 Norte 17 Norte 0 -- -- 86
2019-05-22 10:00:00 17.1 3 Noroeste 17 Nordeste 0 -- -- 88
2019-05-22 09:00:00 15.9 14 Nordeste 23 Nordeste 0.2 -- -- 95
2019-05-22 08:00:00 16.9 4 Nordeste 15 Nordeste 0 -- -- 90
2019-05-22 07:00:00 16.7 8 Nordeste 18 Nordeste 0 -- -- 89
2019-05-22 06:00:00 16.5 6 Nordeste 20 Nordeste 0 -- -- 90
2019-05-22 05:00:00 16.8 7 Norte 15 Noroeste 0 -- -- 93
2019-05-22 04:00:00 16.9 4 Noroeste 9 Este 0 -- -- 87
2019-05-22 03:00:00 16.8 5 Este 21 Este 0 -- -- 80
2019-05-22 02:00:00 17.1 5 Norte 18 Nordeste 0 -- -- 89
2019-05-22 01:00:00 17 4 Norte 15 Norte 0 -- -- 90
2019-05-22 00:00:00 17.2 5 Norte 11 Nordeste 0 -- -- 88
2019-05-21 23:00:00 17.1 4 Nordeste 12 Nordeste 0 -- -- 87
2019-05-21 22:00:00 17.3 9 Nordeste 15 Norte 0 -- -- 85
2019-05-21 21:00:00 17.9 5 Nordeste 14 Norte 0 -- -- 77
2019-05-21 20:00:00 18.3 9 Noroeste 19 Noroeste 0 -- -- 76
2019-05-21 19:00:00 19.3 13 Norte 25 Norte 0 -- -- 75
2019-05-21 18:00:00 21.6 12 Nordeste 23 Nordeste 0 -- -- 63
2019-05-21 17:00:00 21.6 13 Nordeste 22 Norte 0 -- -- 60
2019-05-21 16:00:00 20.9 13 Norte 23 Nordeste 0 -- -- 63
2019-05-21 15:00:00 20.2 12 Norte 23 Norte 0 -- -- 63
2019-05-21 14:00:00 20.6 12 Nordeste 22 Norte 0 -- -- 65
2019-05-21 13:00:00 18.7 15 Nordeste 25 Nordeste 0 -- -- 74
2019-05-21 12:00:00 18.9 9 Norte 16 Noroeste 0 -- -- 73
2019-05-21 11:00:00 18.1 6 Norte 19 Este 0 -- -- 80
2019-05-21 10:00:00 17 10 Nordeste 23 Nordeste 0 -- -- 84
2019-05-21 09:00:00 16.4 16 Nordeste 23 Nordeste 0.2 -- -- 87
2019-05-21 08:00:00 16 12 Nordeste 22 Nordeste 0 -- -- 94
2019-05-21 07:00:00 16.4 4 Norte 8 Oeste 0 -- -- 90
2019-05-21 06:00:00 16.5 3 Sudeste 11 Sudeste 0 -- -- 86
2019-05-21 05:00:00 16.1 4 Sudeste 8 Sudeste 0 -- -- 89
2019-05-21 04:00:00 16.4 4 Este 14 Sudeste 0 -- -- 86
2019-05-21 03:00:00 16 3 Este 10 Sudeste 0 -- -- 85
2019-05-21 02:00:00 16.1 2 Sudoeste 10 Sur 0 -- -- 84
2019-05-21 01:00:00 15 5 Sur 7 Sur 0 -- -- 86
2019-05-21 00:00:00 15.5 0 Calma 4 Este 0 -- -- 89